createdAt,value
2023-11-01T00:00:20.278Z,86.06
2023-11-01T00:01:20.332Z,86.02
2023-11-01T00:02:20.322Z,86.09
2023-11-01T00:03:20.462Z,86.15
2023-11-01T00:04:20.444Z,86.17
2023-11-01T00:05:20.454Z,86.15
2023-11-01T00:06:20.480Z,86.18
2023-11-01T00:07:20.530Z,86.23
2023-11-01T00:08:20.646Z,86.21
2023-11-01T00:09:20.657Z,86.26
2023-11-01T00:10:20.675Z,86.25
2023-11-01T00:11:20.821Z,86.35
2023-11-01T00:12:20.731Z,86.34
2023-11-01T00:13:20.789Z,86.38
2023-11-01T00:14:20.943Z,86.42
2023-11-01T00:15:20.984Z,86.35
2023-11-01T00:16:21.039Z,86.29
2023-11-01T00:17:21.034Z,86.24
2023-11-01T00:18:21.107Z,86.19
2023-11-01T00:19:21.133Z,86.34
2023-11-01T00:20:21.246Z,86.23
2023-11-01T00:21:21.241Z,86.27
2023-11-01T00:22:21.245Z,86.39
2023-11-01T00:23:21.293Z,86.55
2023-11-01T00:24:21.260Z,86.65
2023-11-01T00:25:21.378Z,86.73
2023-11-01T00:26:21.432Z,86.76
2023-11-01T00:27:21.710Z,86.69
2023-11-01T00:28:21.395Z,86.66
2023-11-01T00:29:21.469Z,86.75
2023-11-01T00:30:21.529Z,86.93
2023-11-01T00:31:21.527Z,86.91
2023-11-01T00:32:21.649Z,86.82
2023-11-01T00:33:21.735Z,86.76
2023-11-01T00:34:21.762Z,86.54
2023-11-01T00:35:21.793Z,86.62
2023-11-01T00:36:21.776Z,86.37
2023-11-01T00:37:21.785Z,86.25
2023-11-01T00:38:21.883Z,86.12
2023-11-01T00:39:21.979Z,86.07
2023-11-01T00:40:21.904Z,86.00
2023-11-01T00:41:21.915Z,86.07
2023-11-01T00:42:22.118Z,85.92
2023-11-01T00:43:21.917Z,85.75
2023-11-01T00:44:22.020Z,85.80
2023-11-01T00:45:22.081Z,85.91
2023-11-01T00:46:22.169Z,85.92
2023-11-01T00:47:22.279Z,85.96
2023-11-01T00:48:22.274Z,86.11
2023-11-01T00:49:22.290Z,86.22
2023-11-01T00:50:22.272Z,86.31
2023-11-01T00:51:22.273Z,86.37
2023-11-01T00:52:22.298Z,86.61
2023-11-01T00:53:22.308Z,86.60
2023-11-01T00:54:22.297Z,86.53
2023-11-01T00:55:22.243Z,86.68
2023-11-01T00:56:22.308Z,86.77
2023-11-01T00:57:22.327Z,86.40
2023-11-01T00:58:22.425Z,86.09
2023-11-01T00:59:22.441Z,85.90
2023-11-01T01:00:22.456Z,85.75
2023-11-01T01:01:22.523Z,85.70
2023-11-01T01:02:22.695Z,85.85
2023-11-01T01:03:22.676Z,86.00
2023-11-01T01:04:22.575Z,85.95
2023-11-01T01:05:22.613Z,85.91
2023-11-01T01:06:23.175Z,86.00
2023-11-01T01:07:22.606Z,85.95
2023-11-01T01:08:22.681Z,85.93
2023-11-01T01:09:22.641Z,85.80
2023-11-01T01:10:22.728Z,85.58
2023-11-01T01:11:22.747Z,85.28
2023-11-01T01:12:22.726Z,85.10
2023-11-01T01:13:22.730Z,84.94
2023-11-01T01:14:22.772Z,85.10
2023-11-01T01:15:22.870Z,85.38
2023-11-01T01:16:22.874Z,85.71
2023-11-01T01:17:22.893Z,85.83
2023-11-01T01:18:22.894Z,85.83
2023-11-01T01:19:22.855Z,85.88
2023-11-01T01:20:23.117Z,85.91
2023-11-01T01:21:23.008Z,86.05
2023-11-01T01:22:23.020Z,86.10
2023-11-01T01:23:23.042Z,86.40
2023-11-01T01:24:23.016Z,86.53
2023-11-01T01:25:23.118Z,86.65
2023-11-01T01:26:23.139Z,86.72
2023-11-01T01:27:23.136Z,86.76
2023-11-01T01:28:23.131Z,86.79
2023-11-01T01:29:23.188Z,86.92
2023-11-01T01:30:23.164Z,86.91
2023-11-01T01:31:23.301Z,87.02
2023-11-01T01:32:23.319Z,87.07
2023-11-01T01:33:23.415Z,87.07
2023-11-01T01:34:23.398Z,87.13
2023-11-01T01:35:23.453Z,87.12
2023-11-01T01:36:23.454Z,87.29
2023-11-01T01:37:24.227Z,87.18
2023-11-01T01:38:23.645Z,87.33
2023-11-01T01:39:23.646Z,87.45
2023-11-01T01:40:23.630Z,87.60
2023-11-01T01:41:23.684Z,87.45
2023-11-01T01:42:23.661Z,87.32
2023-11-01T01:43:23.819Z,87.50
2023-11-01T01:44:24.214Z,87.62
2023-11-01T01:45:23.856Z,87.54
2023-11-01T01:46:23.868Z,87.49
2023-11-01T01:47:23.899Z,87.39
2023-11-01T01:48:23.950Z,87.26
2023-11-01T01:49:32.828Z,87.15
2023-11-01T01:50:25.213Z,87.01
2023-11-01T01:51:23.938Z,86.80
2023-11-01T01:52:23.922Z,86.62
2023-11-01T01:53:24.063Z,86.51
2023-11-01T01:54:23.962Z,86.37
2023-11-01T01:55:23.891Z,86.31
2023-11-01T01:56:23.926Z,86.18
2023-11-01T01:57:23.920Z,86.13
2023-11-01T01:58:23.974Z,86.28
2023-11-01T01:59:23.886Z,86.34
2023-11-01T02:00:23.847Z,86.46
2023-11-01T02:01:34.738Z,86.56
2023-11-01T02:02:24.935Z,86.62
2023-11-01T02:03:23.995Z,86.62
2023-11-01T02:04:25.426Z,86.54
2023-11-01T02:05:23.875Z,86.50
2023-11-01T02:06:23.856Z,86.51
2023-11-01T02:07:23.917Z,86.57
2023-11-01T02:08:24.673Z,86.63
2023-11-01T02:09:24.848Z,86.79
2023-11-01T02:10:23.892Z,86.75
2023-11-01T02:11:23.981Z,86.63
2023-11-01T02:12:23.918Z,86.49
2023-11-01T02:13:23.957Z,86.40
2023-11-01T02:14:23.995Z,86.37
2023-11-01T02:15:24.063Z,86.49
2023-11-01T02:16:24.183Z,86.53
2023-11-01T02:17:24.161Z,86.50
2023-11-01T02:18:24.176Z,86.41
2023-11-01T02:19:24.166Z,86.41
2023-11-01T02:20:24.253Z,86.30
2023-11-01T02:21:24.334Z,86.38
2023-11-01T02:22:24.368Z,86.45
2023-11-01T02:23:24.354Z,86.49
2023-11-01T02:24:24.266Z,86.52
2023-11-01T02:25:24.324Z,86.54
2023-11-01T02:26:24.333Z,86.58
2023-11-01T02:27:24.351Z,86.54
2023-11-01T02:28:24.376Z,86.57
2023-11-01T02:29:24.370Z,86.67
2023-11-01T02:30:24.395Z,86.55
2023-11-01T02:31:24.441Z,86.74
2023-11-01T02:32:24.538Z,86.80
2023-11-01T02:33:24.471Z,86.96
2023-11-01T02:34:24.530Z,87.31
2023-11-01T02:35:24.578Z,87.53
2023-11-01T02:36:24.585Z,87.35
2023-11-01T02:37:24.583Z,87.34
2023-11-01T02:38:24.645Z,87.40
2023-11-01T02:39:24.613Z,87.37
2023-11-01T02:40:24.726Z,87.43
2023-11-01T02:41:24.692Z,87.53
2023-11-01T02:42:24.686Z,87.85
2023-11-01T02:43:24.748Z,87.99
2023-11-01T02:44:24.797Z,88.04
2023-11-01T02:45:24.840Z,88.13
2023-11-01T02:46:24.832Z,87.94
2023-11-01T02:47:24.918Z,87.78
2023-11-01T02:48:24.832Z,87.62
2023-11-01T02:49:24.869Z,87.62
2023-11-01T02:50:24.912Z,87.47
2023-11-01T02:51:24.898Z,87.50
2023-11-01T02:52:24.971Z,87.51
2023-11-01T02:53:25.130Z,87.39
2023-11-01T02:54:25.022Z,87.32
2023-11-01T02:55:25.029Z,87.31
2023-11-01T02:56:25.119Z,87.26
2023-11-01T02:57:25.188Z,87.34
2023-11-01T02:58:25.388Z,87.15
2023-11-01T02:59:25.250Z,87.07
2023-11-01T03:00:25.253Z,87.14
2023-11-01T03:01:25.289Z,87.22
2023-11-01T03:02:25.361Z,87.39
2023-11-01T03:03:25.707Z,87.53
2023-11-01T03:04:25.388Z,87.57
2023-11-01T03:05:25.529Z,87.57
2023-11-01T03:06:25.542Z,87.48
2023-11-01T03:07:25.587Z,87.48
2023-11-01T03:08:25.654Z,87.48
2023-11-01T03:09:26.669Z,87.57
2023-11-01T03:10:25.753Z,87.56
2023-11-01T03:11:25.726Z,87.52
2023-11-01T03:12:25.790Z,87.49
2023-11-01T03:13:25.854Z,87.45
2023-11-01T03:14:25.938Z,87.42
2023-11-01T03:15:25.888Z,87.35
2023-11-01T03:16:25.962Z,87.31
2023-11-01T03:17:26.028Z,87.36
2023-11-01T03:18:26.036Z,87.34
2023-11-01T03:19:26.076Z,87.26
2023-11-01T03:20:26.171Z,87.22
2023-11-01T03:21:26.132Z,87.24
2023-11-01T03:22:26.142Z,87.14
2023-11-01T03:23:26.218Z,87.16
2023-11-01T03:24:26.250Z,87.25
2023-11-01T03:25:26.261Z,87.32
2023-11-01T03:26:26.737Z,87.45
2023-11-01T03:27:26.372Z,87.48
2023-11-01T03:28:26.387Z,87.55
2023-11-01T03:29:26.472Z,87.52
2023-11-01T03:30:26.491Z,87.31
2023-11-01T03:31:26.676Z,87.29
2023-11-01T03:32:26.662Z,87.31
2023-11-01T03:33:26.757Z,87.24
2023-11-01T03:34:26.608Z,86.98
2023-11-01T03:35:26.669Z,86.78
2023-11-01T03:36:26.682Z,86.71
2023-11-01T03:37:26.737Z,86.78
2023-11-01T03:38:26.713Z,86.75
2023-11-01T03:39:26.776Z,86.95
2023-11-01T03:40:26.774Z,87.14
2023-11-01T03:41:26.831Z,87.37
2023-11-01T03:42:26.872Z,87.60
2023-11-01T03:43:26.883Z,87.61
2023-11-01T03:44:26.975Z,87.55
2023-11-01T03:45:27.028Z,87.46
2023-11-01T03:46:27.094Z,87.36
2023-11-01T03:47:27.145Z,87.34
2023-11-01T03:48:27.194Z,87.28
2023-11-01T03:49:27.182Z,87.26
2023-11-01T03:50:27.212Z,87.07
2023-11-01T03:51:27.247Z,86.92
2023-11-01T03:52:27.267Z,87.12
2023-11-01T03:53:27.343Z,87.05
2023-11-01T03:54:27.371Z,86.88
2023-11-01T03:55:27.344Z,86.87
2023-11-01T03:56:27.401Z,86.89
2023-11-01T03:57:27.421Z,86.87
2023-11-01T03:58:27.403Z,86.82
2023-11-01T03:59:27.559Z,86.80
2023-11-01T04:00:27.505Z,86.73
2023-11-01T04:01:27.545Z,86.75
2023-11-01T04:02:27.625Z,86.66
2023-11-01T04:03:27.680Z,86.75
2023-11-01T04:04:27.629Z,86.91
2023-11-01T04:05:27.738Z,87.02
2023-11-01T04:06:27.744Z,87.08
2023-11-01T04:07:27.780Z,87.20
2023-11-01T04:08:28.711Z,87.23
2023-11-01T04:09:27.823Z,87.24
2023-11-01T04:10:28.703Z,87.22
2023-11-01T04:11:28.012Z,87.29
2023-11-01T04:12:27.930Z,87.16
2023-11-01T04:13:27.932Z,87.23
2023-11-01T04:14:28.021Z,87.28
2023-11-01T04:15:28.027Z,87.30
2023-11-01T04:16:28.048Z,87.24
2023-11-01T04:17:28.207Z,87.34
2023-11-01T04:18:28.141Z,87.32
2023-11-01T04:19:28.186Z,87.39
2023-11-01T04:20:28.261Z,87.36
2023-11-01T04:21:28.163Z,87.44
2023-11-01T04:22:28.262Z,87.54
2023-11-01T04:23:28.280Z,87.62
2023-11-01T04:24:28.291Z,87.55
2023-11-01T04:25:28.287Z,87.53
2023-11-01T04:26:28.432Z,87.50
2023-11-01T04:27:28.327Z,87.39
2023-11-01T04:28:28.376Z,87.25
2023-11-01T04:29:28.442Z,87.28
2023-11-01T04:30:28.444Z,87.20
2023-11-01T04:31:28.555Z,87.18
2023-11-01T04:32:28.764Z,87.07
2023-11-01T04:33:28.604Z,87.08
2023-11-01T04:34:28.583Z,86.89
2023-11-01T04:35:28.608Z,86.95
2023-11-01T04:36:28.787Z,86.82
2023-11-01T04:37:28.690Z,86.76
2023-11-01T04:38:28.757Z,86.52
2023-11-01T04:39:28.795Z,86.52
2023-11-01T04:40:28.757Z,86.52
2023-11-01T04:41:29.766Z,86.52
2023-11-01T04:42:28.827Z,86.59
2023-11-01T04:43:28.828Z,86.64
2023-11-01T04:44:28.882Z,86.75
2023-11-01T04:45:29.105Z,86.80
2023-11-01T04:46:29.010Z,86.83
2023-11-01T04:47:29.021Z,86.84
2023-11-01T04:48:29.117Z,86.91
2023-11-01T04:49:29.108Z,87.04
2023-11-01T04:50:29.140Z,87.17
2023-11-01T04:51:29.123Z,87.10
2023-11-01T04:52:29.215Z,87.01
2023-11-01T04:53:29.271Z,86.96
2023-11-01T04:54:29.225Z,86.96
2023-11-01T04:55:29.233Z,86.92
2023-11-01T04:56:29.381Z,86.94
2023-11-01T04:57:29.338Z,86.95
2023-11-01T04:58:29.432Z,86.97
2023-11-01T04:59:29.393Z,86.98
2023-11-01T05:00:29.411Z,87.00
2023-11-01T05:01:29.523Z,86.98
2023-11-01T05:02:29.538Z,86.91
2023-11-01T05:03:29.571Z,86.99
2023-11-01T05:04:29.709Z,87.01
2023-11-01T05:05:29.542Z,87.06
2023-11-01T05:06:29.518Z,87.17
2023-11-01T05:07:29.625Z,87.28
2023-11-01T05:08:29.675Z,87.18
2023-11-01T05:09:29.720Z,87.17
2023-11-01T05:10:29.741Z,87.16
2023-11-01T05:11:29.750Z,87.16
2023-11-01T05:12:29.805Z,87.18
2023-11-01T05:13:29.840Z,87.09
2023-11-01T05:14:29.863Z,87.21
2023-11-01T05:15:29.945Z,87.21
2023-11-01T05:16:29.991Z,87.24
2023-11-01T05:17:30.072Z,87.17
2023-11-01T05:18:30.049Z,87.23
2023-11-01T05:19:30.006Z,87.35
2023-11-01T05:20:30.117Z,87.38
2023-11-01T05:21:30.106Z,87.48
2023-11-01T05:22:30.126Z,87.50
2023-11-01T05:23:30.190Z,87.51
2023-11-01T05:24:30.138Z,87.54
2023-11-01T05:25:30.871Z,87.44
2023-11-01T05:26:30.291Z,87.44
2023-11-01T05:27:30.273Z,87.37
2023-11-01T05:28:30.273Z,87.03
2023-11-01T05:29:30.417Z,86.79
2023-11-01T05:30:30.453Z,86.55
2023-11-01T05:31:30.385Z,86.30
2023-11-01T05:32:30.467Z,85.97
2023-11-01T05:33:30.436Z,85.85
2023-11-01T05:34:30.971Z,85.83
2023-11-01T05:35:30.537Z,85.88
2023-11-01T05:36:30.584Z,85.78
2023-11-01T05:37:30.743Z,85.67
2023-11-01T05:38:30.818Z,85.56
2023-11-01T05:39:30.753Z,85.66
2023-11-01T05:40:30.737Z,85.73
2023-11-01T05:41:30.802Z,85.66
2023-11-01T05:42:30.788Z,85.56
2023-11-01T05:43:30.787Z,85.46
2023-11-01T05:44:30.972Z,85.45
2023-11-01T05:45:30.889Z,85.41
2023-11-01T05:46:30.968Z,85.41
2023-11-01T05:47:31.230Z,85.32
2023-11-01T05:48:31.015Z,85.29
2023-11-01T05:49:31.028Z,85.43
2023-11-01T05:50:31.068Z,85.57
2023-11-01T05:51:31.160Z,85.79
2023-11-01T05:52:31.242Z,85.65
2023-11-01T05:53:31.173Z,85.64
2023-11-01T05:54:31.228Z,85.66
2023-11-01T05:55:38.536Z,85.56
2023-11-01T05:56:32.283Z,85.43
2023-11-01T05:57:31.267Z,85.15
2023-11-01T05:58:31.263Z,85.04
2023-11-01T05:59:31.253Z,84.92
2023-11-01T06:00:31.745Z,84.91
2023-11-01T06:01:31.242Z,84.84
2023-11-01T06:02:31.312Z,84.75
2023-11-01T06:03:31.410Z,84.64
2023-11-01T06:04:31.299Z,84.57
2023-11-01T06:05:31.238Z,84.59
2023-11-01T06:06:31.205Z,84.41
2023-11-01T06:07:31.143Z,84.38
2023-11-01T06:08:31.197Z,84.36
2023-11-01T06:09:32.023Z,84.38
2023-11-01T06:10:31.166Z,84.49
2023-11-01T06:11:31.213Z,84.51
2023-11-01T06:12:31.257Z,84.39
2023-11-01T06:13:31.285Z,84.42
2023-11-01T06:14:31.333Z,84.36
2023-11-01T06:15:31.336Z,84.55
2023-11-01T06:16:31.450Z,84.76
2023-11-01T06:17:31.602Z,85.05
2023-11-01T06:18:31.453Z,85.21
2023-11-01T06:19:31.532Z,85.27
2023-11-01T06:20:31.577Z,85.21
2023-11-01T06:21:31.579Z,85.08
2023-11-01T06:22:31.676Z,85.03
2023-11-01T06:23:31.717Z,85.13
2023-11-01T06:24:31.706Z,84.85
2023-11-01T06:25:31.705Z,84.50
2023-11-01T06:26:31.896Z,84.62
2023-11-01T06:27:31.813Z,84.71
2023-11-01T06:28:31.833Z,84.58
2023-11-01T06:29:31.865Z,84.32
2023-11-01T06:30:32.751Z,84.23
2023-11-01T06:31:31.852Z,84.36
2023-11-01T06:32:31.915Z,84.45
2023-11-01T06:33:32.130Z,84.65
2023-11-01T06:34:31.945Z,84.63
2023-11-01T06:35:32.005Z,84.58
2023-11-01T06:36:32.087Z,84.58
2023-11-01T06:37:32.094Z,84.65
2023-11-01T06:38:32.151Z,84.67
2023-11-01T06:39:32.635Z,84.76
2023-11-01T06:40:32.705Z,84.91
2023-11-01T06:41:32.867Z,84.93
2023-11-01T06:42:32.803Z,85.00
2023-11-01T06:43:32.837Z,85.03
2023-11-01T06:44:32.894Z,85.07
2023-11-01T06:45:33.049Z,84.96
2023-11-01T06:46:33.010Z,84.91
2023-11-01T06:47:33.046Z,85.11
2023-11-01T06:48:33.018Z,85.14
2023-11-01T06:49:32.990Z,85.12
2023-11-01T06:50:33.095Z,85.21
2023-11-01T06:51:33.137Z,85.24
2023-11-01T06:52:33.115Z,85.37
2023-11-01T06:53:33.231Z,85.44
2023-11-01T06:54:33.236Z,85.35
2023-11-01T06:55:33.244Z,85.24
2023-11-01T06:56:33.255Z,85.03
2023-11-01T06:57:33.436Z,84.56
2023-11-01T06:58:33.350Z,84.39
2023-11-01T06:59:33.390Z,84.35
2023-11-01T07:00:33.421Z,84.02
2023-11-01T07:01:33.446Z,83.95
2023-11-01T07:02:33.535Z,83.83
2023-11-01T07:03:33.690Z,83.88
2023-11-01T07:04:33.511Z,83.87
2023-11-01T07:05:33.604Z,84.05
2023-11-01T07:06:33.618Z,84.27
2023-11-01T07:07:33.719Z,84.22
2023-11-01T07:08:33.832Z,83.98
2023-11-01T07:09:33.790Z,83.94
2023-11-01T07:10:33.956Z,83.74
2023-11-01T07:11:33.948Z,83.63
2023-11-01T07:12:34.728Z,83.47
2023-11-01T07:13:33.968Z,83.49
2023-11-01T07:28:16.149Z,85.05
2023-11-01T07:29:15.857Z,83.09
2023-11-01T07:30:15.849Z,82.72
2023-11-01T07:31:16.176Z,82.64
2023-11-01T07:32:17.173Z,82.45
2023-11-01T07:33:16.689Z,82.34
2023-11-01T07:34:16.061Z,82.13
2023-11-01T07:35:15.761Z,82.09
2023-11-01T07:36:15.791Z,81.95
2023-11-01T07:37:15.834Z,81.79
2023-11-01T07:38:15.801Z,81.62
2023-11-01T07:39:16.111Z,81.55
2023-11-01T07:40:15.789Z,81.45
2023-11-01T07:41:15.823Z,81.31
2023-11-01T07:42:15.727Z,81.00
2023-11-01T07:43:15.726Z,80.88
2023-11-01T07:44:15.748Z,81.00
2023-11-01T07:45:15.752Z,81.16
2023-11-01T07:46:15.746Z,81.02
2023-11-01T07:47:15.677Z,80.86
2023-11-01T07:48:19.300Z,80.50
2023-11-01T07:49:15.789Z,80.28
2023-11-01T07:50:15.667Z,80.08
2023-11-01T07:51:15.688Z,79.67
2023-11-01T07:52:15.688Z,79.42
2023-11-01T07:53:15.663Z,78.76
2023-11-01T07:56:30.693Z,79.47
2023-11-01T07:57:30.459Z,76.74
2023-11-01T07:58:30.600Z,75.42
2023-11-01T07:59:30.858Z,72.60
2023-11-01T08:00:31.401Z,69.84
2023-11-01T08:01:30.422Z,67.51
2023-11-01T08:02:30.474Z,66.91
2023-11-01T08:03:30.532Z,66.93
2023-11-01T08:04:30.685Z,62.88
2023-11-01T08:05:30.366Z,59.87
2023-11-01T08:06:30.413Z,56.68
2023-11-01T08:07:30.330Z,53.98
2023-11-01T08:08:30.338Z,51.65
2023-11-01T08:09:30.351Z,52.09
2023-11-01T08:10:30.438Z,53.16
2023-11-01T08:11:30.355Z,54.47
2023-11-01T08:12:30.354Z,55.64
2023-11-01T08:13:30.344Z,56.96
2023-11-01T08:14:30.357Z,57.11
2023-11-01T08:15:30.354Z,57.25
2023-11-01T08:16:30.394Z,55.92
2023-11-01T08:17:30.476Z,53.70
2023-11-01T08:18:30.387Z,52.74
2023-11-01T08:19:30.459Z,53.21
2023-11-01T08:20:30.507Z,53.93
2023-11-01T08:21:30.514Z,55.51
2023-11-01T08:22:30.537Z,56.27
2023-11-01T08:23:30.633Z,56.04
2023-11-01T08:24:30.548Z,54.61
2023-11-01T08:25:30.634Z,53.74
2023-11-01T08:26:30.695Z,52.72
2023-11-01T08:27:30.663Z,53.75
2023-11-01T08:28:30.693Z,53.98
2023-11-01T08:29:30.934Z,53.07
2023-11-01T08:30:30.713Z,49.23
2023-11-01T08:31:30.776Z,46.88
2023-11-01T08:32:30.853Z,44.45
2023-11-01T08:33:30.918Z,41.65
2023-11-01T08:34:31.118Z,39.66
2023-11-01T08:35:30.953Z,37.46
2023-11-01T08:36:30.913Z,36.62
2023-11-01T08:37:30.945Z,35.55
2023-11-01T08:38:31.269Z,34.28
2023-11-01T08:39:31.005Z,32.62
2023-11-01T08:40:31.045Z,30.92
2023-11-01T08:41:31.097Z,29.86
2023-11-01T08:42:31.191Z,29.39
2023-11-01T08:43:31.144Z,29.72
2023-11-01T08:44:31.225Z,29.90
2023-11-01T08:45:31.222Z,31.53
2023-11-01T08:46:31.419Z,31.92
2023-11-01T08:47:31.271Z,33.28
2023-11-01T08:48:31.285Z,36.82
2023-11-01T08:49:31.331Z,38.55
2023-11-01T08:50:31.341Z,37.13
2023-11-01T08:51:31.316Z,36.10
2023-11-01T08:52:31.462Z,37.26
2023-11-01T08:53:32.967Z,38.45
2023-11-01T08:54:31.463Z,36.86
2023-11-01T08:55:31.563Z,36.28
2023-11-01T08:56:31.620Z,37.56
2023-11-01T08:57:34.116Z,36.86
2023-11-01T08:58:31.710Z,35.92
2023-11-01T08:59:31.720Z,33.66
2023-11-01T09:00:39.499Z,31.66
2023-11-01T09:01:32.881Z,31.88
2023-11-01T09:02:31.794Z,33.37
2023-11-01T09:03:31.840Z,32.95
2023-11-01T09:04:31.797Z,32.62
2023-11-01T09:05:31.737Z,32.09
2023-11-01T09:06:31.756Z,31.06
2023-11-01T09:07:31.768Z,29.58
2023-11-01T09:08:31.968Z,28.44
2023-11-01T09:09:31.676Z,27.82
2023-11-01T09:10:31.697Z,27.94
2023-11-01T09:11:31.717Z,27.99
2023-11-01T09:12:31.837Z,26.96
2023-11-01T09:13:31.682Z,26.11
2023-11-01T09:14:31.724Z,25.95
2023-11-01T09:15:31.714Z,26.50
2023-11-01T09:16:31.767Z,26.39
2023-11-01T09:17:31.765Z,26.58
2023-11-01T09:18:31.940Z,26.74
2023-11-01T09:19:31.821Z,27.62
2023-11-01T09:20:31.918Z,28.11
2023-11-01T09:21:31.865Z,28.38
2023-11-01T09:22:31.951Z,29.11
2023-11-01T09:23:31.988Z,29.40
2023-11-01T09:24:32.017Z,29.52
2023-11-01T09:25:31.993Z,30.23
2023-11-01T09:26:32.148Z,29.70
2023-11-01T09:27:32.068Z,27.89
2023-11-01T09:28:32.626Z,26.94
2023-11-01T09:29:32.173Z,25.99
2023-11-01T09:30:32.229Z,25.48
2023-11-01T09:31:32.157Z,24.44
2023-11-01T09:32:32.344Z,23.95
2023-11-01T09:33:32.339Z,24.82
2023-11-01T09:34:32.341Z,26.25
2023-11-01T09:35:32.486Z,25.96
2023-11-01T09:36:32.479Z,25.12
2023-11-01T09:37:32.411Z,24.29
2023-11-01T09:38:32.403Z,23.54
2023-11-01T09:39:33.218Z,23.37
2023-11-01T09:40:33.193Z,24.04
2023-11-01T09:41:32.448Z,23.43
2023-11-01T09:42:32.517Z,24.33
2023-11-01T09:43:32.528Z,24.06
2023-11-01T09:44:32.611Z,23.90
2023-11-01T09:45:32.626Z,24.52
2023-11-01T09:46:32.657Z,25.42
2023-11-01T09:47:32.718Z,26.85
2023-11-01T09:48:32.757Z,27.49
2023-11-01T09:49:32.758Z,27.02
2023-11-01T09:50:32.736Z,26.85
2023-11-01T09:51:32.724Z,27.35
2023-11-01T09:52:35.864Z,27.59
2023-11-01T09:53:32.820Z,28.21
2023-11-01T09:54:32.720Z,28.86
2023-11-01T09:55:32.879Z,28.67
2023-11-01T09:56:32.753Z,29.73
2023-11-01T09:57:32.712Z,31.63
2023-11-01T09:58:32.807Z,32.16
2023-11-01T09:59:33.666Z,32.33
2023-11-01T10:00:32.723Z,33.02
2023-11-01T10:01:32.659Z,33.19
2023-11-01T10:02:32.811Z,31.71
2023-11-01T10:03:32.709Z,30.26
2023-11-01T10:04:32.799Z,29.61
2023-11-01T10:05:32.668Z,29.26
2023-11-01T10:06:32.663Z,29.23
2023-11-01T10:07:32.689Z,30.43
2023-11-01T10:08:32.722Z,30.46
2023-11-01T10:09:32.615Z,30.33
2023-11-01T10:10:33.149Z,29.93
2023-11-01T10:11:32.671Z,30.03
2023-11-01T10:12:32.675Z,31.95
2023-11-01T10:13:32.612Z,32.97
2023-11-01T10:14:32.650Z,33.59
2023-11-01T10:15:32.743Z,35.25
2023-11-01T10:16:32.645Z,36.98
2023-11-01T10:17:32.725Z,37.33
2023-11-01T10:18:32.709Z,36.91
2023-11-01T10:19:32.697Z,36.56
2023-11-01T10:20:32.552Z,36.46
2023-11-01T10:21:32.558Z,37.89
2023-11-01T10:22:32.583Z,39.22
2023-11-01T10:23:32.538Z,40.70
2023-11-01T10:24:32.531Z,41.50
2023-11-01T10:25:32.827Z,42.04
2023-11-01T10:26:32.529Z,42.95
2023-11-01T10:27:32.511Z,44.17
2023-11-01T10:28:32.512Z,45.12
2023-11-01T10:29:32.467Z,46.33
2023-11-01T10:30:32.525Z,47.94
2023-11-01T10:31:32.651Z,49.18
2023-11-01T10:32:32.577Z,49.78
2023-11-01T10:33:32.524Z,49.63
2023-11-01T10:34:32.485Z,48.92
2023-11-01T10:35:32.515Z,48.63
2023-11-01T10:36:32.521Z,47.18
2023-11-01T10:37:32.480Z,45.40
2023-11-01T10:38:32.498Z,43.78
2023-11-01T10:39:32.481Z,42.00
2023-11-01T10:40:32.606Z,41.27
2023-11-01T10:41:32.514Z,41.74
2023-11-01T10:42:32.531Z,41.92
2023-11-01T10:43:32.636Z,42.06
2023-11-01T10:44:32.597Z,41.72
2023-11-01T10:45:32.678Z,41.83
2023-11-01T10:46:32.709Z,42.38
2023-11-01T10:47:32.762Z,42.64
2023-11-01T10:48:32.814Z,43.45
2023-11-01T10:49:32.751Z,43.71
2023-11-01T10:50:32.815Z,43.00
2023-11-01T10:51:32.879Z,42.81
2023-11-01T10:52:32.876Z,43.84
2023-11-01T10:53:32.878Z,43.51
2023-11-01T10:54:33.016Z,42.57
2023-11-01T10:55:32.912Z,42.84
2023-11-01T10:56:32.958Z,43.33
2023-11-01T10:57:32.930Z,44.23
2023-11-01T10:58:32.953Z,44.91
2023-11-01T10:59:32.980Z,46.07
2023-11-01T11:00:33.052Z,47.22
2023-11-01T11:01:33.145Z,47.77
2023-11-01T11:02:33.174Z,48.43
2023-11-01T11:03:33.347Z,48.50
2023-11-01T11:04:33.281Z,48.19
2023-11-01T11:05:33.195Z,48.47
2023-11-01T11:06:33.188Z,48.44
2023-11-01T11:07:33.346Z,48.66
2023-11-01T11:08:33.333Z,49.38
2023-11-01T11:09:33.322Z,49.83
2023-11-01T11:10:33.464Z,50.50
2023-11-01T11:11:33.450Z,50.38
2023-11-01T11:12:33.464Z,51.19
2023-11-01T11:13:33.443Z,51.31
2023-11-01T11:14:33.578Z,51.29
2023-11-01T11:15:33.546Z,51.21
2023-11-01T11:16:33.663Z,51.02
2023-11-01T11:17:33.659Z,50.26
2023-11-01T11:18:36.140Z,49.18
2023-11-01T11:19:34.618Z,48.85
2023-11-01T11:20:33.601Z,49.51
2023-11-01T11:21:33.582Z,49.80
2023-11-01T11:22:33.586Z,49.19
2023-11-01T11:23:33.608Z,47.60
2023-11-01T11:24:34.184Z,46.79
2023-11-01T11:25:33.522Z,45.47
2023-11-01T11:26:33.552Z,44.10
2023-11-01T11:27:33.521Z,42.57
2023-11-01T11:28:33.539Z,42.36
2023-11-01T11:29:33.603Z,42.09
2023-11-01T11:30:35.024Z,42.67
2023-11-01T11:31:33.606Z,42.56
2023-11-01T11:32:33.881Z,42.44
2023-11-01T11:33:33.765Z,42.31
2023-11-01T11:34:34.617Z,42.62
2023-11-01T11:35:33.808Z,43.28
2023-11-01T11:36:35.480Z,43.99
2023-11-01T11:37:34.020Z,44.67
2023-11-01T11:38:34.103Z,45.65
2023-11-01T11:39:34.056Z,45.71
2023-11-01T11:40:34.050Z,45.80
2023-11-01T11:41:34.164Z,45.61
2023-11-01T11:42:35.217Z,45.27
2023-11-01T11:43:34.152Z,44.70
2023-11-01T11:44:34.263Z,45.54
2023-11-01T11:45:34.313Z,45.36
2023-11-01T11:46:34.278Z,45.51
2023-11-01T11:47:34.461Z,45.70
2023-11-01T11:48:34.432Z,45.15
2023-11-01T11:49:34.405Z,45.53
2023-11-01T11:50:34.379Z,45.38
2023-11-01T11:51:34.432Z,45.81
2023-11-01T11:52:34.533Z,46.61
2023-11-01T11:53:34.573Z,47.10
2023-11-01T11:54:34.534Z,47.59
2023-11-01T11:55:34.627Z,48.01
2023-11-01T11:56:34.624Z,47.89
2023-11-01T11:57:34.610Z,48.39
2023-11-01T11:58:35.382Z,48.02
2023-11-01T11:59:34.758Z,47.70
2023-11-01T12:00:34.794Z,47.64
2023-11-01T12:01:34.827Z,48.30
2023-11-01T12:02:34.854Z,49.59
2023-11-01T12:03:34.970Z,50.03
2023-11-01T12:04:37.665Z,49.81
2023-11-01T12:05:34.864Z,49.73
2023-11-01T12:06:34.826Z,49.72
2023-11-01T12:07:34.946Z,50.33
2023-11-01T12:08:34.878Z,49.94
2023-11-01T12:09:34.808Z,49.97
2023-11-01T12:10:37.408Z,49.85
2023-11-01T12:11:34.812Z,49.87
2023-11-01T12:12:34.831Z,50.11
2023-11-01T12:13:34.775Z,50.31
2023-11-01T12:14:34.812Z,50.62
2023-11-01T12:15:34.800Z,51.31
2023-11-01T12:16:37.160Z,51.77
2023-11-01T12:17:34.998Z,51.94
2023-11-01T12:18:35.735Z,52.12
2023-11-01T12:19:34.789Z,51.32
2023-11-01T12:20:34.788Z,51.33
2023-11-01T12:21:34.729Z,51.03
2023-11-01T12:22:34.737Z,51.20
2023-11-01T12:23:34.780Z,51.45
2023-11-01T12:24:34.745Z,51.73
2023-11-01T12:25:34.702Z,52.20
2023-11-01T12:26:35.204Z,52.48
2023-11-01T12:27:34.688Z,51.93
2023-11-01T12:28:37.071Z,52.58
2023-11-01T12:29:34.937Z,52.66
2023-11-01T12:30:34.653Z,52.47
2023-11-01T12:31:37.702Z,52.49
2023-11-01T12:32:34.839Z,52.24
2023-11-01T12:33:34.958Z,52.47
2023-11-01T12:34:34.679Z,52.79
2023-11-01T12:35:34.753Z,52.54
2023-11-01T12:36:34.637Z,52.37
2023-11-01T12:37:34.689Z,52.14
2023-11-01T12:38:34.653Z,51.20
2023-11-01T12:39:34.682Z,50.93
2023-11-01T12:40:36.811Z,51.69
2023-11-01T12:41:34.722Z,52.00
2023-11-01T12:42:34.634Z,51.60
2023-11-01T12:43:34.669Z,51.97
2023-11-01T12:44:34.703Z,52.58
2023-11-01T12:45:34.602Z,53.35
2023-11-01T12:46:35.914Z,53.79
2023-11-01T12:47:34.614Z,54.09
2023-11-01T12:48:34.538Z,54.74
2023-11-01T12:49:34.576Z,54.50
2023-11-01T12:50:34.719Z,54.67
2023-11-01T12:51:34.537Z,54.81
2023-11-01T12:52:36.606Z,55.17
2023-11-01T12:53:34.558Z,54.89
2023-11-01T12:54:34.561Z,54.58
2023-11-01T12:55:34.548Z,54.31
2023-11-01T12:56:34.541Z,53.60
2023-11-01T12:57:34.576Z,53.31
2023-11-01T12:58:35.934Z,53.57
2023-11-01T12:59:34.900Z,53.92
2023-11-01T13:00:34.911Z,54.08
2023-11-01T13:06:53.439Z,53.99
2023-11-01T13:07:53.420Z,53.64
2023-11-01T13:08:53.633Z,53.61
2023-11-01T13:09:53.336Z,53.68
2023-11-01T13:10:53.390Z,54.02
2023-11-01T13:11:53.378Z,54.00
2023-11-01T13:12:53.365Z,54.34
2023-11-01T13:13:53.305Z,54.59